AirNav   Everest Fuels
 
 817 users online  

1GE2 C & W Air Park
Woodland, Georgia, USA

GOING TO WOODLAND?


FAA INFORMATION EFFECTIVE 10 SEPTEMBER 2020

Location

FAA Identifier: 1GE2
Lat/Long: 32-50-40.0000N 084-32-38.0000W
32-50.666667N 084-32.633333W
32.8444444,-84.5438889
(estimated)
Elevation: 1306 ft. / 398 m (estimated)
Variation: 03W (1995)
From city: 5 miles SW of WOODLAND, GA
Time zone: UTC -4 (UTC -5 during Standard Time)
Zip code: 31836

Airport Operations

Airport use: Private use. Permission required prior to landing
Activation date: 07/1999
Control tower: no
ARTCC: ATLANTA CENTER
FSS: MACON FLIGHT SERVICE STATION
Attendance: UNATNDD
Segmented circle: no

Airport Communications

WX AWOS-3 at OPN (16 nm NE): 133.975 (706-646-4123)
WX AWOS-3PT at PIM (17 nm W): 120.275 (706-663-2081)

Nearby radio navigation aids

VOR radial/distance  VOR name  Freq  Var
CSGr059/27.6COLUMBUS VORTAC117.1001E
LGCr109/35.5LAGRANGE VORTAC115.6001E
LSFr038/38.2LAWSON VOR/DME111.4002W

 
NDB name  Hdg/Dist  Freq  Var  ID
PINE MOUNTAIN093/16.627203WPIM .--. .. --
COWETA COUNTY164/26.223403WEQQ . --.- --.-
PECAT191/27.531605WFFC ..-. ..-. -.-.
MONTEZUMA321/39.542604WIZS .. --.. ...

Airport Services

Runway Information

Runway 10/28

Dimensions: 2400 x 150 ft. / 732 x 46 m
Surface: turf
RUNWAY 10  RUNWAY 28
Traffic pattern: leftleft
Obstructions: 20 ft. pline, 1200 ft. from runwaynone

Airport Ownership and Management from official FAA records

Ownership: Privately-owned
Owner: WILSON KENDRICK
1571 CHALYBEATE SPRINGS RD
WOODLAND, GA 31836
Phone 706-674-2214
Manager: WILSON KENDRICK
1571 CHALYBEATE SPRINGS RD
WOODLAND, GA 31836
Phone 706-674-2214

Airport Operational Statistics

Aircraft based on the field: 1
Single engine airplanes: 1
    

Additional Remarks

OWNER DESIRES ARPT NOT BE CHARTED.
FOR CD CTC ATLANTA APCH AT 678-364-6132, WHEN APCH CLSD CTC ATLANTA ARTCC AT 770-210-7692.

Instrument Procedures

There are no published instrument procedures at 1GE2.

Some nearby airports with instrument procedures:

KOPN - Thomaston-Upson County Airport (16 nm NE)
KPIM - Harris County Airport (17 nm W)
6A1 - Butler Municipal Airport (22 nm SE)
6A2 - Griffin-Spalding County Airport (27 nm NE)
KCSG - Columbus Airport (28 nm SW)
 
Loc | Ops | Rwys | IFR | FBO | Links
Com | Nav | Svcs | Stats | Notes
Area around 1GE2 (C & W Air Park)
 
Road maps at: MapQuest Bing Google
 
Aerial photo
No photo
 
Sectional chart

 
Airport distance calculator
Flying to C & W Air Park? Find the distance to fly.

From to 1GE2

Sunrise and sunset
Times for 22-Sep-2020
 Local
(UTC-4)
 Zulu
(UTC)
Morning civil twilight07:0311:03
Sunrise07:2811:28
Sunset19:3323:33
Evening civil twilight19:5823:58

Current date and time
Zulu (UTC)  22-Sep-2020 04:16:23
Local (UTC-4)  22-Sep-2020 00:16:23
 
METAR
KOPN 
15nm NE 
220355Z AUTO 07005KT 10SM CLR 15/10 A3031 RMK AO2
KPIM 
17nm W 
220355Z AUTO 06008KT 10SM CLR 15/09 A3029 RMK AO2 T01500087 402260131
K6A1 
22nm SE 
220355Z AUTO 07003KT 10SM CLR 15/10 A3028 RMK AO2 T01480104
K6A2 
27nm NE 
220355Z AUTO 06003KT 10SM CLR 12/11 A3030 RMK AO2
KLGC 
28nm W 
220355Z AUTO 00000KT 10SM CLR 14/09 A3029 RMK AO2 T01410092
KCSG 
28nm SW 
220351Z AUTO 08008KT 10SM CLR 17/10 A3026 RMK AO2 SLP245 T01720100
KFFC 
30nm N 
220353Z AUTO 00000KT 10SM CLR 11/11 A3031 RMK AO2 SLP263 T01110106
KCCO 
30nm N 
220355Z AUTO 07004KT 10SM CLR 15/11 A3030 RMK AO2 T01470110
TAF
KCSG 
28nm SW 
211739Z 2118/2218 07010G20KT P6SM SCT250 FM212200 08011KT P6SM FEW050 FM221500 08008KT P6SM SCT030
NOTAMs
Click for the latest NOTAMs
NOTAMs are issued by the DoD/FAA and will open in a separate window not controlled by AirNav.

 

 
 

Would you like to see your business listed on this page?

 If your business provides an interesting product or service to pilots, flight crews, aircraft, or users of the C & W Air Park, you should consider listing it here.  To start the listing process, click on the button below
 
Add a business
 

Other Pages about C & W Air Park

Update a link
 
Copyright © AirNav, LLC. All rights reserved. Privacy Policy  Contact